Time;durP1;ratioP1;P1;durP2;ratioP2;P2;SDS_P1;SDS_P2;PMS_P1;PMS_P2;Temp;Humidity;BMP_temperature;BMP_pressure;BME280_temperature;BME280_humidity;BME280_pressure;Samples;Min_cycle;Max_cycle;Signal;HPM_P1;HPM_P2
2023/10/03 00:00:24;;;;;;;31.90;15.15;;;15.00;64.80;;;;;;5063415;28;20471;-61
2023/10/03 00:02:55;;;;;;;30.33;15.77;;;15.00;64.90;;;;;;5059863;28;20031;-60
2023/10/03 00:05:28;;;;;;;28.95;15.43;;;14.90;64.90;;;;;;5052971;28;20128;-60
2023/10/03 00:07:56;;;;;;;29.38;15.18;;;14.90;65.10;;;;;;5063527;28;20052;-61
2023/10/03 00:10:23;;;;;;;26.45;14.75;;;14.90;65.10;;;;;;5065796;28;20496;-62
2023/10/03 00:12:51;;;;;;;27.17;14.85;;;14.90;65.30;;;;;;5067564;28;20090;-60
2023/10/03 00:15:18;;;;;;;29.23;14.93;;;14.90;65.40;;;;;;5059666;28;20086;-61
2023/10/03 00:17:45;;;;;;;25.55;14.07;;;14.90;65.40;;;;;;5061441;28;20020;-61
2023/10/03 00:20:16;;;;;;;22.02;12.80;;;14.90;65.40;;;;;;5057159;28;20035;-62
2023/10/03 00:22:42;;;;;;;19.88;12.45;;;14.80;65.60;;;;;;5065714;28;20036;-61
2023/10/03 00:25:17;;;;;;;20.60;12.32;;;14.80;65.40;;;;;;5060192;28;20036;-61
2023/10/03 00:27:49;;;;;;;19.60;11.13;;;14.90;65.60;;;;;;5069339;28;20051;-60
2023/10/03 00:30:15;;;;;;;20.83;12.30;;;14.80;65.60;;;;;;5063591;28;20103;-61
2023/10/03 00:32:44;;;;;;;20.02;12.05;;;14.80;65.60;;;;;;5064795;28;20020;-60
2023/10/03 00:35:11;;;;;;;25.75;13.73;;;14.80;65.90;;;;;;5060488;28;20028;-60
2023/10/03 00:37:37;;;;;;;27.55;14.38;;;14.80;65.70;;;;;;5067912;28;20398;-62
2023/10/03 00:42:52;;;;;;;31.90;15.27;;;14.80;66.30;;;;;;5066758;28;20429;-60
2023/10/03 00:45:25;;;;;;;36.85;16.42;;;14.80;65.80;;;;;;4963724;28;20559;-61
2023/10/03 00:47:54;;;;;;;39.78;16.58;;;14.80;66.10;;;;;;5058307;28;20034;-61
2023/10/03 00:50:23;;;;;;;46.47;16.10;;;14.80;66.30;;;;;;5056945;28;20070;-61
2023/10/03 00:52:56;;;;;;;42.58;17.67;;;14.70;66.40;;;;;;5060719;28;20024;-61
2023/10/03 00:55:33;;;;;;;44.67;17.30;;;14.70;66.50;;;;;;5059201;28;20484;-60
2023/10/03 01:00:40;;;;;;;43.47;17.30;;;14.70;66.50;;;;;;5059165;28;20036;-61
2023/10/03 01:03:06;;;;;;;;;;;14.70;66.40;;;;;;5066046;28;20475;-61
2023/10/03 01:05:36;;;;;;;41.65;16.77;;;14.70;66.60;;;;;;5069552;28;19950;-60
2023/10/03 01:08:04;;;;;;;45.63;18.17;;;14.70;65.80;;;;;;5059346;28;20036;-60
2023/10/03 01:10:32;;;;;;;42.50;17.52;;;14.60;65.80;;;;;;5064656;28;20115;-61
2023/10/03 01:13:08;;;;;;;43.25;17.80;;;14.60;65.90;;;;;;5066342;28;20411;-61
2023/10/03 01:15:35;;;;;;;55.75;20.15;;;14.60;66.50;;;;;;5058343;28;20400;-63
2023/10/03 01:18:01;;;;;;;56.95;21.58;;;14.50;66.20;;;;;;5071002;28;20021;-61
2023/10/03 01:20:40;;;;;;;59.90;21.50;;;14.50;66.50;;;;;;5061205;28;20356;-61
2023/10/03 01:23:06;;;;;;;53.28;20.73;;;14.50;66.70;;;;;;5059971;28;20028;-61
2023/10/03 01:25:35;;;;;;;46.72;19.30;;;14.50;66.80;;;;;;5064212;28;20028;-61
2023/10/03 01:28:00;;;;;;;52.67;20.33;;;14.50;67.00;;;;;;5059215;28;20028;-60
2023/10/03 01:30:26;;;;;;;49.45;19.67;;;14.50;67.00;;;;;;5059090;28;20693;-61
2023/10/03 01:32:56;;;;;;;51.03;20.33;;;14.50;67.00;;;;;;5061448;28;20029;-60
2023/10/03 01:35:22;;;;;;;50.10;20.95;;;14.40;67.20;;;;;;5061980;28;20032;-60
2023/10/03 01:37:50;;;;;;;48.78;20.63;;;14.40;66.90;;;;;;5067654;28;20146;-61
2023/10/03 01:40:17;;;;;;;49.05;20.92;;;14.40;67.00;;;;;;5058945;28;20028;-60
2023/10/03 01:42:46;;;;;;;47.03;19.77;;;14.40;66.60;;;;;;5062785;28;20036;-60
2023/10/03 01:45:17;;;;;;;46.28;18.52;;;14.40;66.50;;;;;;4992424;28;20078;-61
2023/10/03 01:47:47;;;;;;;49.97;20.33;;;14.30;66.50;;;;;;5059249;28;20438;-61
2023/10/03 01:50:14;;;;;;;50.22;19.80;;;14.30;66.70;;;;;;5053052;28;20079;-62
2023/10/03 01:52:41;;;;;;;58.05;20.92;;;14.30;66.60;;;;;;5061821;28;20075;-61
2023/10/03 01:55:09;;;;;;;52.08;19.85;;;14.30;66.60;;;;;;5062345;28;21768;-60
2023/10/03 01:57:35;;;;;;;49.00;20.08;;;14.20;66.70;;;;;;5055210;28;20396;-60
2023/10/03 02:00:05;;;;;;;46.95;18.85;;;14.20;66.70;;;;;;5066792;28;20062;-59
2023/10/03 02:02:31;;;;;;;42.38;17.77;;;14.10;66.80;;;;;;5061534;28;20028;-60
2023/10/03 02:04:56;;;;;;;41.65;17.77;;;14.10;66.90;;;;;;5057805;28;20055;-60
2023/10/03 02:07:24;;;;;;;45.08;18.85;;;14.10;66.90;;;;;;5066367;28;20041;-60
2023/10/03 02:09:50;;;;;;;44.47;18.20;;;14.00;67.00;;;;;;5066011;28;20028;-60
2023/10/03 02:12:15;;;;;;;43.85;17.65;;;14.00;67.10;;;;;;5067475;28;20102;-60
2023/10/03 02:14:41;;;;;;;37.78;17.73;;;14.00;67.20;;;;;;5063775;28;20025;-60
2023/10/03 02:17:06;;;;;;;44.28;17.48;;;13.90;67.10;;;;;;5052867;28;20037;-60
2023/10/03 02:19:32;;;;;;;46.17;18.83;;;13.90;67.30;;;;;;5055673;28;20031;-60
2023/10/03 02:21:59;;;;;;;48.20;20.17;;;13.90;67.50;;;;;;5060031;28;20031;-59
2023/10/03 02:24:25;;;;;;;45.00;18.75;;;13.90;68.30;;;;;;5068060;28;20098;-61
2023/10/03 02:26:51;;;;;;;55.35;22.20;;;13.90;67.60;;;;;;5055477;28;20032;-61
2023/10/03 02:29:17;;;;;;;71.30;25.50;;;13.90;67.60;;;;;;5066198;28;20039;-61
2023/10/03 02:31:44;;;;;;;62.72;24.95;;;13.90;67.70;;;;;;5061605;28;20028;-61
2023/10/03 02:34:10;;;;;;;57.00;23.83;;;13.90;67.70;;;;;;5068277;28;20483;-62
2023/10/03 02:36:35;;;;;;;54.35;21.73;;;13.90;67.80;;;;;;5062506;28;20039;-61
2023/10/03 02:39:01;;;;;;;52.63;21.10;;;13.80;67.70;;;;;;5054310;28;20025;-62
2023/10/03 02:41:29;;;;;;;55.47;20.95;;;13.80;67.60;;;;;;5058956;28;20017;-61
2023/10/03 02:43:55;;;;;;;54.17;21.80;;;13.80;68.40;;;;;;5057804;28;20574;-59
2023/10/03 02:46:21;;;;;;;52.13;21.65;;;13.80;67.40;;;;;;4967887;28;20108;-60
2023/10/03 02:48:48;;;;;;;52.08;21.33;;;13.80;67.30;;;;;;5065050;28;20058;-60
2023/10/03 02:51:14;;;;;;;49.38;20.50;;;13.80;67.30;;;;;;5066031;28;20029;-60
2023/10/03 02:53:40;;;;;;;47.00;21.13;;;13.70;67.20;;;;;;5062434;28;20033;-60
2023/10/03 02:56:07;;;;;;;45.13;20.05;;;13.70;67.20;;;;;;5061339;28;20381;-60
2023/10/03 02:58:33;;;;;;;38.60;18.15;;;13.60;67.10;;;;;;5061877;28;20014;-60
2023/10/03 03:00:58;;;;;;;39.95;18.38;;;13.60;67.20;;;;;;5051459;28;20040;-60
2023/10/03 03:03:30;;;;;;;43.60;20.40;;;13.60;67.30;;;;;;5058858;28;20033;-61
2023/10/03 03:05:57;;;;;;;42.45;19.50;;;13.60;67.50;;;;;;5065235;28;20147;-61
2023/10/03 03:08:23;;;;;;;40.28;18.95;;;13.50;67.50;;;;;;5060554;28;20094;-60
2023/10/03 03:10:55;;;;;;;38.65;18.90;;;13.50;67.50;;;;;;5064394;28;20112;-60
2023/10/03 03:13:27;;;;;;;37.95;18.60;;;13.50;67.50;;;;;;5062156;28;20040;-62
2023/10/03 03:16:15;;;;;;;31.33;15.93;;;13.40;67.50;;;;;;5063642;28;20332;-60
2023/10/03 03:18:40;;;;;;;28.80;15.57;;;13.40;67.50;;;;;;5061959;28;20032;-60
2023/10/03 03:21:13;;;;;;;32.35;15.77;;;13.40;67.30;;;;;;5060963;28;20028;-62
2023/10/03 03:23:42;;;;;;;27.75;14.98;;;13.40;67.30;;;;;;5061535;28;20021;-61
2023/10/03 03:28:38;;;;;;;28.65;15.50;;;13.30;67.30;;;;;;5063964;28;20566;-60
2023/10/03 03:31:25;;;;;;;28.70;15.10;;;13.30;67.40;;;;;;5066595;28;20543;-60
2023/10/03 03:33:58;;;;;;;25.55;15.25;;;13.20;67.40;;;;;;5067032;28;20024;-60
2023/10/03 03:36:34;;;;;;;28.70;15.95;;;13.20;67.30;;;;;;5069738;28;20028;-61
2023/10/03 03:39:14;;;;;;;26.90;14.65;;;13.20;67.10;;;;;;5062337;28;20486;-61
2023/10/03 03:41:40;;;;;;;26.35;14.68;;;13.20;67.10;;;;;;5066445;28;20039;-61
2023/10/03 03:44:12;;;;;;;28.17;14.02;;;13.20;67.20;;;;;;5072277;28;20024;-60
2023/10/03 03:46:41;;;;;;;25.05;14.32;;;13.10;67.30;;;;;;5062556;28;20612;-61
2023/10/03 03:49:08;;;;;;;26.08;14.40;;;13.10;67.40;;;;;;5066010;28;20032;-60
2023/10/03 03:51:34;;;;;;;31.00;15.52;;;13.10;67.30;;;;;;5062142;28;20025;-61
2023/10/03 03:54:00;;;;;;;35.70;17.48;;;13.10;67.50;;;;;;5065703;28;20143;-61
2023/10/03 03:56:26;;;;;;;49.35;17.60;;;13.10;67.70;;;;;;5058946;28;20043;-61
2023/10/03 03:58:52;;;;;;;46.70;19.05;;;13.00;67.70;;;;;;5060634;28;20029;-61
2023/10/03 04:01:19;;;;;;;44.47;19.05;;;13.00;67.80;;;;;;5060980;28;20119;-61
2023/10/03 04:03:54;;;;;;;44.97;19.95;;;13.00;67.80;;;;;;5064651;28;20021;-62
2023/10/03 04:06:20;;;;;;;50.90;20.05;;;13.00;67.80;;;;;;5065817;28;20043;-60
2023/10/03 04:08:46;;;;;;;46.47;19.73;;;12.90;67.70;;;;;;5062382;28;20039;-61
2023/10/03 04:11:15;;;;;;;45.90;19.02;;;13.00;67.90;;;;;;5064309;28;20027;-61
2023/10/03 04:13:49;;;;;;;35.90;17.27;;;13.00;68.00;;;;;;5065093;28;20538;-63
2023/10/03 04:16:16;;;;;;;33.53;16.48;;;13.00;67.90;;;;;;5060772;28;20360;-59
2023/10/03 04:18:44;;;;;;;38.53;18.25;;;12.90;67.90;;;;;;5057830;28;20033;-61
2023/10/03 04:21:10;;;;;;;34.63;16.25;;;12.90;68.00;;;;;;5066595;28;20483;-60
2023/10/03 04:23:36;;;;;;;32.47;16.25;;;12.90;68.00;;;;;;5056110;28;20055;-60
2023/10/03 04:26:04;;;;;;;37.90;16.30;;;12.90;68.00;;;;;;5064342;28;20025;-60
2023/10/03 04:28:31;;;;;;;34.00;16.27;;;12.90;68.10;;;;;;5061883;28;20044;-62
2023/10/03 04:30:57;;;;;;;35.33;15.68;;;12.90;68.00;;;;;;5054098;28;20062;-61
2023/10/03 04:33:23;;;;;;;33.65;15.40;;;12.90;68.00;;;;;;5063427;28;21250;-61
2023/10/03 04:35:49;;;;;;;38.67;16.70;;;12.90;68.00;;;;;;5069435;28;20031;-61
2023/10/03 04:38:16;;;;;;;33.35;15.70;;;12.90;67.90;;;;;;5064739;28;20094;-60
2023/10/03 04:40:42;;;;;;;30.95;15.90;;;12.80;67.90;;;;;;5059920;28;20495;-60
2023/10/03 04:43:11;;;;;;;37.88;16.67;;;12.90;68.00;;;;;;5072718;28;20024;-62
2023/10/03 04:45:37;;;;;;;34.10;16.92;;;12.90;68.00;;;;;;4957344;28;20032;-60
2023/10/03 04:48:03;;;;;;;34.20;16.85;;;12.80;68.10;;;;;;5061073;28;20024;-60
2023/10/03 04:50:30;;;;;;;33.67;16.35;;;12.80;68.10;;;;;;5062557;28;20055;-61
2023/10/03 04:52:55;;;;;;;41.85;19.85;;;12.80;68.20;;;;;;5067682;28;20098;-61
2023/10/03 04:55:22;;;;;;;40.03;19.08;;;12.80;68.20;;;;;;5056135;28;20020;-60
2023/10/03 04:57:52;;;;;;;44.47;22.42;;;12.80;68.20;;;;;;5065063;28;20590;-60
2023/10/03 05:00:20;;;;;;;47.28;24.15;;;12.80;68.30;;;;;;5058620;28;20024;-60
2023/10/03 05:02:48;;;;;;;47.13;23.55;;;12.80;68.20;;;;;;5066632;28;20486;-61
2023/10/03 05:05:21;;;;;;;41.53;19.90;;;12.80;68.20;;;;;;5054937;28;20037;-61
2023/10/03 05:07:48;;;;;;;38.38;18.50;;;12.80;68.30;;;;;;5068233;28;20089;-61
2023/10/03 05:10:14;;;;;;;44.35;19.83;;;12.90;68.30;;;;;;5063898;28;20482;-62
2023/10/03 05:12:40;;;;;;;33.47;16.95;;;12.80;68.20;;;;;;5064370;28;20514;-60
2023/10/03 05:15:08;;;;;;;33.47;17.70;;;12.80;68.20;;;;;;5062935;28;20713;-60
2023/10/03 05:17:35;;;;;;;33.22;18.35;;;12.80;68.40;;;;;;5062336;28;20033;-60
2023/10/03 05:20:03;;;;;;;36.17;18.55;;;12.80;68.30;;;;;;5063267;28;20039;-61
2023/10/03 05:22:32;;;;;;;33.20;17.83;;;12.80;68.30;;;;;;5066088;28;20028;-60
2023/10/03 05:25:01;;;;;;;35.50;18.25;;;12.80;68.40;;;;;;5063569;28;20233;-61
2023/10/03 05:27:30;;;;;;;37.08;16.05;;;12.80;68.50;;;;;;5062634;28;20798;-60
2023/10/03 05:30:05;;;;;;;36.78;15.10;;;12.80;68.60;;;;;;5059433;28;20064;-61
2023/10/03 05:32:31;;;;;;;27.85;15.30;;;12.80;68.90;;;;;;5063974;28;20016;-60
2023/10/03 05:34:58;;;;;;;35.85;16.08;;;12.80;68.60;;;;;;5064245;28;20028;-60
2023/10/03 05:37:25;;;;;;;31.08;15.45;;;12.90;68.80;;;;;;5058576;28;20032;-60
2023/10/03 05:39:51;;;;;;;39.97;18.05;;;12.80;68.90;;;;;;5066425;28;20198;-60
2023/10/03 05:42:20;;;;;;;37.17;17.85;;;12.90;69.00;;;;;;5067769;28;20156;-61
2023/10/03 05:44:46;;;;;;;35.50;17.05;;;12.90;69.00;;;;;;5004292;28;20024;-59
2023/10/03 05:47:12;;;;;;;39.33;18.27;;;12.90;69.00;;;;;;5061243;28;20335;-61
2023/10/03 05:49:38;;;;;;;40.20;19.80;;;13.00;69.20;;;;;;5065789;28;20036;-62
2023/10/03 05:52:06;;;;;;;46.45;18.17;;;13.00;69.20;;;;;;5065631;28;20427;-60
2023/10/03 05:54:32;;;;;;;38.33;17.92;;;13.10;69.30;;;;;;5065304;28;20019;-61
2023/10/03 05:56:58;;;;;;;40.63;16.73;;;13.10;69.30;;;;;;5056859;28;20028;-62
2023/10/03 05:59:24;;;;;;;33.63;16.85;;;13.10;69.30;;;;;;5057691;28;20033;-61
2023/10/03 06:01:50;;;;;;;36.35;16.77;;;13.20;69.40;;;;;;5068234;28;20073;-60
2023/10/03 06:04:16;;;;;;;36.92;16.70;;;13.20;69.40;;;;;;5067545;28;20027;-61
2023/10/03 06:06:43;;;;;;;37.45;16.75;;;13.30;69.40;;;;;;5062977;28;20036;-60
2023/10/03 06:09:12;;;;;;;33.85;16.75;;;13.40;69.40;;;;;;5063973;28;20036;-61
2023/10/03 06:11:39;;;;;;;41.72;17.20;;;13.40;69.40;;;;;;5058237;28;20035;-61
2023/10/03 06:14:05;;;;;;;31.55;16.27;;;13.40;69.20;;;;;;5055762;28;20395;-62
2023/10/03 06:16:31;;;;;;;31.38;15.60;;;13.40;69.20;;;;;;5052819;28;20541;-61
2023/10/03 06:18:57;;;;;;;29.42;15.25;;;13.50;69.30;;;;;;5060756;28;20530;-61
2023/10/03 06:21:23;;;;;;;34.33;15.95;;;13.50;69.10;;;;;;5053826;28;20032;-61
2023/10/03 06:23:50;;;;;;;33.10;15.13;;;13.50;69.10;;;;;;5066401;28;20037;-61
2023/10/03 06:26:20;;;;;;;35.90;16.52;;;13.50;69.10;;;;;;5059008;28;20490;-61
2023/10/03 06:28:48;;;;;;;33.65;15.52;;;13.50;69.00;;;;;;5059225;28;20032;-61
2023/10/03 06:31:15;;;;;;;35.30;15.77;;;13.50;69.00;;;;;;5058848;28;20040;-62
2023/10/03 06:33:44;;;;;;;33.90;16.25;;;13.60;69.20;;;;;;5053159;28;20074;-61
2023/10/03 06:36:11;;;;;;;40.17;16.30;;;13.60;69.30;;;;;;5059345;28;20020;-61
2023/10/03 06:38:38;;;;;;;34.10;17.35;;;13.60;69.40;;;;;;5065378;28;20041;-61
2023/10/03 06:41:05;;;;;;;34.75;16.30;;;13.60;69.50;;;;;;5065900;28;20029;-61
2023/10/03 06:43:32;;;;;;;36.53;17.38;;;13.70;69.80;;;;;;5061657;28;20035;-61
2023/10/03 06:45:58;;;;;;;35.50;16.35;;;13.80;69.90;;;;;;4988586;28;20035;-61
2023/10/03 06:48:24;;;;;;;33.70;16.65;;;13.80;69.90;;;;;;5054865;28;20369;-62
2023/10/03 06:50:50;;;;;;;32.80;16.38;;;13.90;69.90;;;;;;5066378;28;20060;-63
2023/10/03 06:53:19;;;;;;;36.90;16.90;;;14.00;69.90;;;;;;5067183;28;20604;-61
2023/10/03 06:55:45;;;;;;;36.00;17.05;;;14.10;70.00;;;;;;5064443;28;21120;-61
2023/10/03 06:58:11;;;;;;;36.53;17.00;;;14.30;70.00;;;;;;5071397;28;20028;-61
2023/10/03 07:00:40;;;;;;;31.73;15.95;;;14.40;69.90;;;;;;5060758;28;20040;-62
2023/10/03 07:03:06;;;;;;;38.92;18.33;;;14.50;69.90;;;;;;5061160;28;20035;-61
2023/10/03 07:05:34;;;;;;;44.80;18.85;;;14.60;69.90;;;;;;5055845;28;20078;-61
2023/10/03 07:08:00;;;;;;;44.83;19.33;;;14.80;69.90;;;;;;5064977;28;20102;-62
2023/10/03 07:10:26;;;;;;;43.00;19.55;;;14.90;69.80;;;;;;5055454;28;20033;-61
2023/10/03 07:12:52;;;;;;;42.33;19.23;;;15.00;69.90;;;;;;5091648;27;20136;-61
2023/10/03 07:15:18;;;;;;;38.45;20.02;;;15.20;70.00;;;;;;5067689;28;20123;-62
2023/10/03 07:17:44;;;;;;;40.67;18.75;;;15.30;69.80;;;;;;5064872;28;20017;-62
2023/10/03 07:20:12;;;;;;;40.67;19.20;;;15.50;69.90;;;;;;5061888;28;20094;-61
2023/10/03 07:22:39;;;;;;;44.25;18.67;;;15.60;70.00;;;;;;5067757;28;20438;-61
2023/10/03 07:25:08;;;;;;;38.15;17.65;;;15.80;70.00;;;;;;5064832;28;20032;-62
2023/10/03 07:27:34;;;;;;;35.70;16.65;;;16.00;70.00;;;;;;5066140;28;20040;-61
2023/10/03 07:30:03;;;;;;;38.40;18.25;;;16.20;69.90;;;;;;5066363;28;20028;-62
2023/10/03 07:32:32;;;;;;;39.17;19.10;;;16.30;69.70;;;;;;5064095;28;20551;-61
2023/10/03 07:35:02;;;;;;;40.92;20.73;;;16.50;69.60;;;;;;5062842;28;20547;-61
2023/10/03 07:37:28;;;;;;;41.38;18.77;;;16.60;69.40;;;;;;5070289;28;20043;-61
2023/10/03 07:39:54;;;;;;;38.78;18.90;;;16.80;69.50;;;;;;5071755;28;20107;-61
2023/10/03 07:42:23;;;;;;;37.38;19.08;;;17.00;69.80;;;;;;5063332;28;20025;-63
2023/10/03 07:44:53;;;;;;;38.40;18.55;;;17.20;69.90;;;;;;5064216;28;21213;-61
2023/10/03 07:47:22;;;;;;;39.72;18.00;;;17.40;70.10;;;;;;5061193;28;20031;-62
2023/10/03 07:49:48;;;;;;;37.63;17.55;;;17.60;69.90;;;;;;5065484;28;20072;-62
2023/10/03 07:52:18;;;;;;;38.03;17.98;;;17.80;69.90;;;;;;5067516;28;20084;-62
2023/10/03 07:54:47;;;;;;;36.67;17.38;;;18.00;69.80;;;;;;5093255;27;20036;-61
2023/10/03 07:57:13;;;;;;;35.78;16.67;;;18.20;69.80;;;;;;5071183;28;20032;-62
2023/10/03 07:59:39;;;;;;;36.65;17.77;;;18.40;69.60;;;;;;5064652;28;20659;-62
2023/10/03 08:02:10;;;;;;;37.45;16.40;;;18.60;69.30;;;;;;5061740;28;20031;-64
2023/10/03 08:04:37;;;;;;;33.33;17.10;;;18.80;69.10;;;;;;5062517;28;20025;-62
2023/10/03 08:07:07;;;;;;;32.38;16.58;;;19.00;68.80;;;;;;5069421;28;20025;-62
2023/10/03 08:09:33;;;;;;;35.13;16.45;;;19.20;68.50;;;;;;5066326;28;20735;-63
2023/10/03 08:11:58;;;;;;;32.95;16.00;;;19.50;68.50;;;;;;5065881;28;20016;-62
2023/10/03 08:14:24;;;;;;;31.90;15.48;;;19.70;68.30;;;;;;5067080;28;20806;-62
2023/10/03 08:16:52;;;;;;;30.88;14.88;;;19.90;68.10;;;;;;5061739;28;20033;-62
2023/10/03 08:19:26;;;;;;;33.92;15.23;;;20.10;67.90;;;;;;5053305;28;20027;-61
2023/10/03 08:21:53;;;;;;;36.53;15.90;;;20.30;67.60;;;;;;5067465;28;20639;-62
2023/10/03 08:24:24;;;;;;;34.95;14.73;;;20.50;67.20;;;;;;5065688;28;20391;-62
2023/10/03 08:26:51;;;;;;;28.15;15.10;;;20.70;67.00;;;;;;5060182;28;20016;-61
2023/10/03 08:29:23;;;;;;;31.23;15.30;;;21.00;67.50;;;;;;5058272;28;20052;-63
2023/10/03 08:31:49;;;;;;;27.83;12.45;;;21.20;66.50;;;;;;5070275;28;20024;-62
2023/10/03 08:34:19;;;;;;;24.48;12.80;;;21.40;66.20;;;;;;5068936;28;20028;-62
2023/10/03 08:36:45;;;;;;;31.55;12.27;;;21.60;65.80;;;;;;5070071;28;20016;-62
2023/10/03 08:39:14;;;;;;;31.05;11.18;;;21.80;65.60;;;;;;5065918;28;20025;-62
2023/10/03 08:41:46;;;;;;;24.77;10.77;;;22.00;64.90;;;;;;5058110;28;20074;-62
2023/10/03 08:44:12;;;;;;;23.00;10.30;;;22.20;64.00;;;;;;5064432;28;20865;-62
2023/10/03 08:46:58;;;;;;;29.30;11.63;;;22.50;63.80;;;;;;4996044;28;20131;-62
2023/10/03 08:49:33;;;;;;;23.50;10.98;;;22.70;62.80;;;;;;5056608;28;20040;-62
2023/10/03 08:52:01;;;;;;;22.70;9.90;;;22.90;61.90;;;;;;5065463;28;20029;-63
2023/10/03 08:54:36;;;;;;;21.20;10.20;;;23.10;61.30;;;;;;5065282;28;20442;-62
2023/10/03 08:57:02;;;;;;;20.45;10.40;;;23.30;61.40;;;;;;5060333;28;20029;-63
2023/10/03 08:59:30;;;;;;;24.80;10.02;;;23.50;59.90;;;;;;5063783;28;20020;-63
2023/10/03 09:02:01;;;;;;;19.42;10.23;;;23.60;59.70;;;;;;5066923;28;20486;-63
2023/10/03 09:04:37;;;;;;;19.80;9.90;;;23.80;59.90;;;;;;5062994;28;20054;-62
2023/10/03 09:07:08;;;;;;;19.40;9.35;;;24.00;59.20;;;;;;5064121;28;20040;-63
2023/10/03 09:09:41;;;;;;;14.88;9.40;;;24.20;59.00;;;;;;5063311;28;20041;-63
2023/10/03 09:12:08;;;;;;;19.52;9.90;;;24.40;59.30;;;;;;5060701;28;20033;-62
2023/10/03 09:14:36;;;;;;;21.83;10.35;;;24.60;58.30;;;;;;5059416;28;20522;-62
2023/10/03 09:17:03;;;;;;;18.63;9.80;;;24.80;57.80;;;;;;5057908;28;20101;-63
2023/10/03 09:19:45;;;;;;;18.95;9.43;;;24.90;57.30;;;;;;5067235;28;20056;-64
2023/10/03 09:22:15;;;;;;;18.58;8.68;;;25.10;55.90;;;;;;5064223;28;20052;-63
2023/10/03 09:24:44;;;;;;;14.85;8.48;;;25.30;56.10;;;;;;5060632;28;20413;-62
2023/10/03 09:27:17;;;;;;;18.60;8.63;;;25.40;55.90;;;;;;5057791;28;20802;-63
2023/10/03 09:29:49;;;;;;;15.93;8.40;;;25.60;55.20;;;;;;5057349;28;20468;-62
2023/10/03 09:32:19;;;;;;;17.55;9.15;;;25.70;55.00;;;;;;5059826;28;20042;-63
2023/10/03 09:34:56;;;;;;;18.70;9.05;;;25.80;55.20;;;;;;5088856;27;20032;-63
2023/10/03 09:37:28;;;;;;;16.33;7.88;;;26.00;54.30;;;;;;5056014;28;20047;-62
2023/10/03 09:39:59;;;;;;;18.33;8.68;;;26.20;53.70;;;;;;5052100;28;21322;-62
2023/10/03 09:42:25;;;;;;;19.13;8.88;;;26.30;53.40;;;;;;5054610;28;20028;-62
2023/10/03 09:44:57;;;;;;;17.58;9.43;;;26.40;53.00;;;;;;5062054;28;20032;-62
2023/10/03 09:47:32;;;;;;;17.77;9.00;;;26.50;53.20;;;;;;5062932;28;20344;-62
2023/10/03 09:50:06;;;;;;;15.35;8.20;;;26.70;52.80;;;;;;5061695;28;20044;-62
2023/10/03 09:52:32;;;;;;;14.35;8.50;;;26.80;52.40;;;;;;5061705;28;20030;-62
2023/10/03 09:55:02;;;;;;;14.30;8.23;;;26.90;51.90;;;;;;5062076;28;20034;-64
2023/10/03 09:57:29;;;;;;;14.65;8.23;;;27.00;51.60;;;;;;5062199;28;20524;-63
2023/10/03 09:59:58;;;;;;;16.83;8.05;;;27.10;51.40;;;;;;5063628;28;20040;-63
2023/10/03 10:02:37;;;;;;;18.38;9.95;;;27.10;51.40;;;;;;5059260;28;20034;-62
2023/10/03 10:05:21;;;;;;;14.25;7.72;;;27.30;50.90;;;;;;5067506;28;20029;-64
2023/10/03 10:08:06;;;;;;;14.80;8.53;;;27.30;50.20;;;;;;5061257;28;20017;-62
2023/10/03 10:10:33;;;;;;;14.57;8.23;;;27.50;50.00;;;;;;5061698;28;20052;-62
2023/10/03 10:13:13;;;;;;;17.92;7.75;;;27.50;50.20;;;;;;5065030;28;20052;-62
2023/10/03 10:16:00;;;;;;;11.77;7.75;;;27.60;49.30;;;;;;5063049;28;20108;-62
2023/10/03 10:18:50;;;;;;;16.55;10.20;;;27.70;49.40;;;;;;5067475;28;20021;-63
2023/10/03 10:21:36;;;;;;;16.90;8.75;;;27.80;48.70;;;;;;5049365;28;20028;-64
2023/10/03 10:24:20;;;;;;;14.40;7.63;;;27.80;47.90;;;;;;5064555;28;20029;-62
2023/10/03 10:26:52;;;;;;;13.48;7.20;;;27.90;48.00;;;;;;5065812;28;20032;-63
2023/10/03 10:29:19;;;;;;;15.75;7.40;;;27.90;48.10;;;;;;5065998;28;20044;-64
2023/10/03 10:31:57;;;;;;;15.93;7.55;;;27.90;48.20;;;;;;5067185;28;20082;-63
2023/10/03 10:34:40;;;;;;;13.70;7.80;;;28.00;47.20;;;;;;5061347;28;20086;-63
2023/10/03 10:37:09;;;;;;;14.75;7.78;;;28.10;48.00;;;;;;5066926;28;20104;-64
2023/10/03 10:39:54;;;;;;;15.10;7.10;;;28.10;47.40;;;;;;5070440;28;20028;-63
2023/10/03 10:42:29;;;;;;;13.90;7.47;;;28.20;46.00;;;;;;5066230;28;20589;-63
2023/10/03 10:45:04;;;;;;;16.08;6.70;;;28.30;47.00;;;;;;5063013;28;20017;-63
2023/10/03 10:47:35;;;;;;;11.43;6.72;;;28.30;46.40;;;;;;5057386;28;20032;-62
2023/10/03 10:50:01;;;;;;;10.85;6.55;;;28.40;46.40;;;;;;5064366;28;20064;-63
2023/10/03 10:52:30;;;;;;;10.70;6.13;;;28.50;46.50;;;;;;5066534;28;20460;-64
2023/10/03 10:54:56;;;;;;;10.48;6.60;;;28.50;46.90;;;;;;5058218;28;20020;-63
2023/10/03 10:57:26;;;;;;;11.98;7.00;;;28.60;46.60;;;;;;5065358;28;20024;-63
2023/10/03 10:59:53;;;;;;;11.38;7.13;;;28.70;46.10;;;;;;5072050;28;20395;-63
2023/10/03 11:02:22;;;;;;;12.55;6.95;;;28.70;45.90;;;;;;5064028;28;20119;-64
2023/10/03 11:04:58;;;;;;;17.30;7.50;;;28.80;46.10;;;;;;5065190;28;20016;-62
2023/10/03 11:07:29;;;;;;;12.55;7.32;;;28.80;45.10;;;;;;5069747;28;20021;-63
2023/10/03 11:10:04;;;;;;;11.13;6.72;;;28.90;45.20;;;;;;5061533;28;20033;-62
2023/10/03 11:12:29;;;;;;;18.30;7.25;;;28.90;45.40;;;;;;5062914;28;20083;-63
2023/10/03 11:14:56;;;;;;;12.10;6.50;;;29.00;45.20;;;;;;5062627;28;20094;-63
2023/10/03 11:17:23;;;;;;;12.70;7.07;;;29.00;44.90;;;;;;5061316;28;20487;-64
2023/10/03 11:19:50;;;;;;;12.95;7.13;;;29.00;45.00;;;;;;5062167;28;20040;-62
2023/10/03 11:22:17;;;;;;;12.57;7.30;;;29.00;44.80;;;;;;5064126;28;20041;-63
2023/10/03 11:24:44;;;;;;;13.88;6.75;;;29.10;44.60;;;;;;5062977;28;20024;-62
2023/10/03 11:27:26;;;;;;;18.50;6.53;;;29.10;44.00;;;;;;5060178;28;20028;-62
2023/10/03 11:29:52;;;;;;;13.07;6.28;;;29.10;43.00;;;;;;5063748;28;20036;-64
2023/10/03 11:32:23;;;;;;;13.73;6.38;;;29.10;43.30;;;;;;5064765;28;20115;-63
2023/10/03 11:34:50;;;;;;;13.68;5.93;;;29.10;42.80;;;;;;5057330;28;20437;-63
2023/10/03 11:37:36;;;;;;;10.80;6.10;;;29.20;43.70;;;;;;5069639;28;20032;-63
2023/10/03 11:40:13;;;;;;;10.25;5.75;;;29.20;43.50;;;;;;5059013;28;20020;-62
2023/10/03 11:42:44;;;;;;;11.27;6.32;;;29.30;43.10;;;;;;5062840;28;20123;-62
2023/10/03 11:45:15;;;;;;;11.80;5.70;;;29.40;42.90;;;;;;5013883;28;20481;-63
2023/10/03 11:47:41;;;;;;;17.10;5.80;;;29.50;43.00;;;;;;5058549;28;20641;-62
2023/10/03 11:50:09;;;;;;;13.07;6.20;;;29.50;43.10;;;;;;5058729;28;20048;-62
2023/10/03 11:52:34;;;;;;;12.20;5.88;;;29.60;43.10;;;;;;5066861;28;20028;-62
2023/10/03 11:55:00;;;;;;;18.88;5.78;;;29.60;42.80;;;;;;5059043;28;20052;-63
2023/10/03 11:57:26;;;;;;;9.95;5.80;;;29.60;42.30;;;;;;5063764;28;20040;-63
2023/10/03 11:59:52;;;;;;;12.57;5.20;;;29.70;42.50;;;;;;5068168;28;20020;-63
2023/10/03 12:02:17;;;;;;;8.98;5.70;;;29.70;42.30;;;;;;5065541;28;20035;-63
2023/10/03 12:04:43;;;;;;;13.02;5.82;;;29.70;41.90;;;;;;5063529;28;20028;-63
2023/10/03 12:07:11;;;;;;;10.80;5.38;;;29.70;41.90;;;;;;5067635;28;20060;-61
2023/10/03 12:09:36;;;;;;;13.60;5.72;;;29.70;42.10;;;;;;5058495;28;20041;-62
2023/10/03 12:12:02;;;;;;;11.50;5.60;;;29.80;41.80;;;;;;5064171;28;20666;-63
2023/10/03 12:14:29;;;;;;;9.73;5.45;;;29.90;41.70;;;;;;5059843;28;20012;-63
2023/10/03 12:16:54;;;;;;;9.57;5.25;;;29.90;40.90;;;;;;5069443;28;20028;-63
2023/10/03 12:19:21;;;;;;;12.02;5.43;;;29.90;40.60;;;;;;5067951;28;20028;-63
2023/10/03 12:21:49;;;;;;;13.30;5.70;;;29.90;40.80;;;;;;5066506;28;20059;-63
2023/10/03 12:24:14;;;;;;;16.98;5.38;;;29.90;41.00;;;;;;5057143;28;20029;-64
2023/10/03 12:26:41;;;;;;;8.57;5.55;;;29.90;41.30;;;;;;5053966;28;20024;-64
2023/10/03 12:29:07;;;;;;;10.65;6.07;;;29.90;41.00;;;;;;5067754;28;20383;-63
2023/10/03 12:31:34;;;;;;;14.75;5.80;;;29.90;41.00;;;;;;5069325;28;20032;-64
2023/10/03 12:34:01;;;;;;;9.50;5.53;;;29.90;40.90;;;;;;5056587;28;20372;-63
2023/10/03 12:36:32;;;;;;;8.65;5.38;;;29.90;40.90;;;;;;5068622;28;20035;-63
2023/10/03 12:38:59;;;;;;;9.77;5.43;;;29.90;40.70;;;;;;5064444;28;20028;-64
2023/10/03 12:41:31;;;;;;;10.75;5.20;;;29.80;40.90;;;;;;5067416;28;20040;-64
2023/10/03 12:43:57;;;;;;;10.75;5.53;;;29.80;40.70;;;;;;5066031;28;20052;-63
2023/10/03 12:46:23;;;;;;;8.00;5.40;;;29.80;40.70;;;;;;4960179;28;21193;-62